Time;durP1;ratioP1;P1;durP2;ratioP2;P2;SDS_P1;SDS_P2;PMS_P1;PMS_P2;Temp;Humidity;BMP_temperature;BMP_pressure;BME280_temperature;BME280_humidity;BME280_pressure;Samples;Min_cycle;Max_cycle;Signal;HPM_P1;HPM_P2
2022/06/04 00:01:39;;;;;;;6.82;4.93;;;19.40;95.60;;;;;;6202448;28;20049;-84
2022/06/04 00:04:41;;;;;;;10.00;5.40;;;19.40;95.70;;;;;;6202793;28;20093;-84
2022/06/04 00:07:43;;;;;;;7.28;4.60;;;19.40;95.70;;;;;;6202176;28;20042;-84
2022/06/04 00:17:27;;;;;;;6.00;3.92;;;19.20;96.00;;;;;;6202199;28;20494;-83
2022/06/04 00:20:29;;;;;;;8.00;4.18;;;19.10;95.90;;;;;;6202710;28;20077;-84
2022/06/04 00:23:31;;;;;;;6.30;5.07;;;19.10;95.90;;;;;;6201544;28;20573;-84
2022/06/04 00:26:33;;;;;;;6.47;4.75;;;19.10;96.00;;;;;;6202191;28;20053;-85
2022/06/04 00:29:36;;;;;;;7.78;4.97;;;19.00;96.10;;;;;;6201635;28;20042;-85
2022/06/04 00:32:38;;;;;;;8.38;5.20;;;19.00;96.10;;;;;;6178287;28;20051;-85
2022/06/04 00:35:40;;;;;;;5.25;4.18;;;19.00;96.20;;;;;;6177604;28;20133;-85
2022/06/04 00:38:44;;;;;;;9.00;5.38;;;18.90;96.30;;;;;;6177061;28;20057;-85
2022/06/04 00:41:55;;;;;;;6.15;4.53;;;18.80;96.40;;;;;;6177716;28;20049;-83
2022/06/04 00:45:30;;;;;;;6.82;4.53;;;18.80;96.40;;;;;;6178392;28;20058;-83
2022/06/04 00:48:34;;;;;;;5.22;4.68;;;18.80;96.40;;;;;;6177302;28;20046;-84
2022/06/04 00:51:37;;;;;;;7.10;4.95;;;18.80;96.70;;;;;;6195336;28;20062;-84
2022/06/04 00:54:40;;;;;;;5.70;4.80;;;18.80;96.50;;;;;;6200568;28;20398;-83
2022/06/04 00:58:09;;;;;;;6.45;4.82;;;18.80;96.60;;;;;;6200796;28;20046;-83
2022/06/04 01:01:19;;;;;;;8.52;5.18;;;18.70;96.60;;;;;;6202949;28;20054;-84
2022/06/04 01:04:48;;;;;;;7.15;5.22;;;18.70;96.60;;;;;;6201559;28;20050;-84
2022/06/04 01:08:04;;;;;;;8.95;5.72;;;18.70;96.60;;;;;;6201074;28;20426;-84
2022/06/04 01:11:16;;;;;;;6.65;5.95;;;18.70;96.70;;;;;;6202932;28;20068;-84
2022/06/04 01:14:26;;;;;;;11.70;8.68;;;18.80;97.20;;;;;;6201473;28;20116;-85
2022/06/04 01:17:35;;;;;;;8.77;7.80;;;18.80;97.50;;;;;;6201377;28;20053;-84
2022/06/04 01:20:45;;;;;;;8.80;7.40;;;18.80;97.90;;;;;;6201242;28;20053;-84
2022/06/04 01:24:31;;;;;;;12.75;8.07;;;18.90;97.70;;;;;;6202305;28;20049;-84
2022/06/04 01:27:39;;;;;;;11.15;7.95;;;18.90;97.60;;;;;;6206472;28;20050;-84
2022/06/04 01:30:44;;;;;;;13.07;8.90;;;18.90;98.10;;;;;;6205898;28;20042;-84
2022/06/04 01:33:52;;;;;;;14.15;8.18;;;19.00;98.30;;;;;;6206051;28;20057;-84
2022/06/04 01:36:59;;;;;;;10.25;7.50;;;19.00;98.10;;;;;;6206473;28;20137;-84
2022/06/04 01:43:29;;;;;;;8.20;6.97;;;19.00;97.80;;;;;;6205864;28;20042;-85
2022/06/04 01:46:36;;;;;;;11.02;6.18;;;19.00;97.60;;;;;;6205889;28;20108;-84
2022/06/04 01:49:43;;;;;;;6.35;5.10;;;19.00;97.40;;;;;;6204864;28;20042;-84
2022/06/04 01:52:47;;;;;;;6.93;5.53;;;19.00;97.30;;;;;;6206308;28;20050;-84
2022/06/04 01:55:54;;;;;;;11.63;6.43;;;18.90;97.20;;;;;;6205466;28;20046;-84
2022/06/04 01:59:03;;;;;;;9.63;6.13;;;18.90;97.20;;;;;;6204985;28;20046;-84
2022/06/04 02:02:10;;;;;;;8.05;6.15;;;18.80;97.20;;;;;;6204965;28;20042;-84
2022/06/04 02:05:17;;;;;;;13.27;7.00;;;18.90;97.30;;;;;;6204985;28;20046;-84
2022/06/04 02:08:26;;;;;;;8.63;6.25;;;18.80;97.30;;;;;;6205782;28;20494;-84
2022/06/04 02:11:30;;;;;;;9.25;5.80;;;18.80;97.30;;;;;;6205337;28;20050;-84
2022/06/04 02:14:33;;;;;;;9.55;7.28;;;18.70;97.40;;;;;;6203895;28;20050;-83
2022/06/04 02:17:38;;;;;;;8.30;5.55;;;18.70;97.50;;;;;;6213371;28;20046;-84
2022/06/04 02:20:40;;;;;;;7.88;6.72;;;18.60;97.70;;;;;;6204625;28;20426;-83
2022/06/04 02:23:43;;;;;;;10.43;6.85;;;18.60;97.70;;;;;;6204595;28;20536;-84
2022/06/04 02:26:44;;;;;;;10.20;6.45;;;18.60;97.70;;;;;;6205086;28;20046;-83
2022/06/04 02:29:47;;;;;;;7.75;6.22;;;18.60;97.60;;;;;;6204599;28;20046;-82
2022/06/04 02:33:01;;;;;;;8.57;5.63;;;18.50;97.60;;;;;;6204880;28;20060;-83
2022/06/04 02:36:07;;;;;;;10.98;6.65;;;18.50;97.60;;;;;;6204003;28;20199;-82
2022/06/04 02:39:14;;;;;;;8.02;5.93;;;18.50;97.60;;;;;;6203693;28;20046;-83
2022/06/04 02:42:22;;;;;;;8.57;6.95;;;18.50;97.60;;;;;;6204471;28;20420;-82
2022/06/04 02:45:31;;;;;;;8.98;6.28;;;18.30;97.70;;;;;;6204608;28;20765;-83
2022/06/04 02:48:41;;;;;;;11.50;7.65;;;18.20;98.00;;;;;;6204107;28;20417;-83
2022/06/04 02:51:46;;;;;;;13.15;7.60;;;18.10;98.10;;;;;;6203840;28;20512;-83
2022/06/04 02:54:55;;;;;;;8.82;6.95;;;18.10;98.30;;;;;;6204428;28;20115;-83
2022/06/04 02:58:01;;;;;;;9.70;5.95;;;18.10;98.20;;;;;;6205424;28;20453;-83
2022/06/04 03:01:08;;;;;;;9.40;6.10;;;18.20;98.20;;;;;;6205281;28;20052;-85
2022/06/04 03:04:11;;;;;;;9.60;6.40;;;18.20;98.10;;;;;;6204249;28;20497;-84
2022/06/04 03:07:12;;;;;;;7.43;6.18;;;18.20;97.90;;;;;;6200671;28;20054;-85
2022/06/04 03:10:17;;;;;;;7.15;6.13;;;18.30;97.90;;;;;;6200082;28;20524;-85
2022/06/04 03:13:20;;;;;;;8.52;6.25;;;18.30;97.90;;;;;;6200514;28;20054;-85
2022/06/04 03:16:23;;;;;;;10.40;5.82;;;18.20;97.80;;;;;;6204204;28;20077;-84
2022/06/04 03:19:25;;;;;;;6.18;5.57;;;18.10;97.90;;;;;;6204489;28;20038;-84
2022/06/04 03:22:26;;;;;;;6.95;6.07;;;18.10;98.00;;;;;;6204725;28;20038;-84
2022/06/04 03:25:30;;;;;;;8.07;5.72;;;18.00;98.20;;;;;;6204641;28;20509;-84
2022/06/04 03:28:32;;;;;;;7.70;5.93;;;18.10;98.20;;;;;;6204690;28;20102;-84
2022/06/04 03:31:35;;;;;;;8.25;5.80;;;18.20;98.10;;;;;;6205009;28;20046;-85
2022/06/04 03:34:37;;;;;;;8.02;6.05;;;18.30;98.10;;;;;;6205457;28;20042;-84
2022/06/04 03:37:39;;;;;;;9.57;6.60;;;18.40;97.90;;;;;;6205540;28;20043;-84
2022/06/04 03:40:41;;;;;;;11.50;5.90;;;18.60;97.70;;;;;;6205202;28;20412;-83
2022/06/04 03:43:46;;;;;;;8.52;5.45;;;18.70;97.50;;;;;;6205179;28;20052;-85
2022/06/04 03:46:49;;;;;;;9.60;5.13;;;18.70;97.40;;;;;;6204322;28;20046;-83
2022/06/04 03:49:51;;;;;;;6.50;5.38;;;18.80;97.30;;;;;;6204996;28;20092;-84
2022/06/04 03:52:53;;;;;;;8.15;4.93;;;18.70;97.20;;;;;;6205172;28;20062;-85
2022/06/04 03:55:55;;;;;;;10.35;4.88;;;18.60;97.40;;;;;;6204813;28;20440;-84
2022/06/04 03:58:56;;;;;;;11.05;5.53;;;18.60;97.40;;;;;;6205015;28;20051;-84
2022/06/04 04:01:59;;;;;;;7.90;5.25;;;18.60;97.40;;;;;;6205222;28;20053;-83
2022/06/04 04:05:02;;;;;;;6.65;5.15;;;18.70;97.40;;;;;;6205341;28;20057;-84
2022/06/04 04:08:06;;;;;;;6.97;5.63;;;18.70;97.20;;;;;;6204964;28;20052;-85
2022/06/04 04:11:11;;;;;;;8.85;5.60;;;18.80;97.20;;;;;;6205246;28;20042;-84
2022/06/04 04:14:13;;;;;;;9.23;5.22;;;19.00;97.10;;;;;;6204419;28;20543;-84
2022/06/04 04:17:16;;;;;;;5.88;5.13;;;19.10;96.80;;;;;;6204825;28;20061;-84
2022/06/04 04:20:20;;;;;;;6.40;4.97;;;19.20;96.70;;;;;;6203388;28;20057;-84
2022/06/04 04:23:22;;;;;;;10.18;5.57;;;19.20;96.80;;;;;;6203350;28;20057;-84
2022/06/04 04:26:24;;;;;;;9.55;6.20;;;19.20;96.80;;;;;;6204753;28;20086;-84
2022/06/04 04:29:26;;;;;;;6.72;6.03;;;19.40;96.90;;;;;;6205062;28;20132;-84
2022/06/04 04:32:29;;;;;;;7.20;4.95;;;19.70;96.60;;;;;;6204501;28;20063;-84
2022/06/04 04:35:33;;;;;;;6.95;5.03;;;20.10;96.30;;;;;;6203476;28;20047;-84
2022/06/04 04:38:35;;;;;;;6.55;5.00;;;20.70;95.50;;;;;;6201046;28;20042;-85
2022/06/04 04:41:37;;;;;;;7.07;4.18;;;21.30;94.30;;;;;;6202299;28;20404;-85
2022/06/04 04:44:39;;;;;;;6.53;4.45;;;21.30;94.00;;;;;;6204333;28;20058;-85
2022/06/04 04:47:44;;;;;;;10.70;4.50;;;21.30;94.00;;;;;;6204211;28;20375;-84
2022/06/04 04:50:48;;;;;;;5.25;4.28;;;21.30;93.80;;;;;;6203966;28;20052;-85
2022/06/04 04:53:51;;;;;;;7.72;4.80;;;21.20;93.90;;;;;;6203967;28;20042;-84
2022/06/04 04:56:53;;;;;;;6.40;4.60;;;21.10;94.00;;;;;;6203457;28;20420;-84
2022/06/04 04:59:55;;;;;;;5.57;4.60;;;20.90;94.10;;;;;;6208274;28;20055;-85
2022/06/04 05:02:59;;;;;;;6.03;5.05;;;20.80;94.40;;;;;;6208788;28;20464;-84
2022/06/04 05:06:03;;;;;;;6.68;5.60;;;20.70;94.50;;;;;;6209047;28;20436;-84
2022/06/04 05:09:05;;;;;;;12.73;6.90;;;20.70;94.70;;;;;;6208592;28;20046;-84
2022/06/04 05:12:08;;;;;;;24.05;7.70;;;20.60;94.90;;;;;;6207887;28;20047;-84
2022/06/04 05:15:11;;;;;;;8.27;7.30;;;20.60;95.10;;;;;;6208951;28;20061;-84
2022/06/04 05:18:14;;;;;;;10.57;7.15;;;20.60;95.30;;;;;;6208467;28;20418;-85
2022/06/04 05:21:21;;;;;;;9.55;7.15;;;20.60;95.40;;;;;;6209611;28;20051;-84
2022/06/04 05:24:26;;;;;;;12.87;8.30;;;20.60;95.60;;;;;;6208475;28;20058;-85
2022/06/04 05:27:29;;;;;;;13.75;8.05;;;20.70;95.60;;;;;;6208456;28;20060;-85
2022/06/04 05:30:30;;;;;;;9.55;7.38;;;20.80;95.60;;;;;;6208323;28;20058;-83
2022/06/04 05:33:34;;;;;;;9.70;7.40;;;20.80;95.60;;;;;;6207408;28;20509;-84
2022/06/04 05:36:36;;;;;;;8.70;6.97;;;20.80;95.50;;;;;;6210007;28;20056;-85
2022/06/04 05:39:37;;;;;;;8.65;7.10;;;20.90;95.50;;;;;;6208241;28;20053;-84
2022/06/04 05:42:39;;;;;;;9.25;7.35;;;20.90;95.60;;;;;;6208109;28;20415;-84
2022/06/04 05:45:41;;;;;;;8.82;7.93;;;20.90;95.60;;;;;;6208892;28;20048;-85
2022/06/04 05:48:45;;;;;;;10.82;8.88;;;20.80;95.70;;;;;;6208879;28;20478;-84
2022/06/04 05:51:48;;;;;;;9.77;8.32;;;20.80;95.70;;;;;;6206387;28;20506;-85
2022/06/04 05:54:50;;;;;;;9.63;8.63;;;20.80;95.80;;;;;;6207956;28;20105;-85
2022/06/04 05:57:51;;;;;;;10.07;8.15;;;20.80;95.90;;;;;;6207805;28;20038;-85
2022/06/04 06:00:59;;;;;;;10.68;8.43;;;20.90;95.80;;;;;;6209149;28;20042;-84
2022/06/04 06:04:02;;;;;;;11.60;9.45;;;20.90;95.70;;;;;;6209005;28;20053;-84
2022/06/04 06:07:04;;;;;;;11.45;9.80;;;20.90;96.00;;;;;;6208623;28;20056;-85
2022/06/04 06:10:07;;;;;;;12.93;10.60;;;20.90;96.40;;;;;;6205002;28;20069;-84
2022/06/04 06:13:09;;;;;;;13.05;9.15;;;20.70;96.80;;;;;;6205493;28;20141;-85
2022/06/04 06:16:13;;;;;;;11.32;10.07;;;20.50;97.40;;;;;;6205439;28;20058;-84
2022/06/04 06:19:18;;;;;;;16.00;10.40;;;20.40;97.70;;;;;;6204498;28;20049;-84
2022/06/04 06:22:20;;;;;;;18.05;12.00;;;20.30;97.90;;;;;;6206062;28;20038;-84
2022/06/04 06:25:22;;;;;;;14.35;11.52;;;20.40;98.00;;;;;;6205309;28;20145;-85
2022/06/04 06:28:24;;;;;;;16.92;11.55;;;20.50;98.10;;;;;;6204862;28;20054;-84
2022/06/04 06:31:28;;;;;;;17.42;11.90;;;20.30;98.20;;;;;;6202271;28;20047;-85
2022/06/04 06:34:31;;;;;;;21.52;12.98;;;20.30;98.40;;;;;;6201370;28;20046;-85
2022/06/04 06:37:32;;;;;;;16.77;11.85;;;20.30;98.70;;;;;;6203566;28;20050;-85
2022/06/04 06:40:36;;;;;;;15.15;11.82;;;20.30;99.10;;;;;;6201395;28;20046;-85
2022/06/04 06:43:38;;;;;;;19.92;13.25;;;20.30;99.90;;;;;;6201579;28;20050;-85
2022/06/04 06:46:42;;;;;;;16.90;13.77;;;20.30;99.90;;;;;;6203723;28;20058;-84
2022/06/04 06:49:45;;;;;;;12.57;11.18;;;20.40;99.90;;;;;;6207148;28;20137;-84
2022/06/04 06:52:47;;;;;;;13.63;11.68;;;20.50;99.90;;;;;;6208178;28;20138;-85
2022/06/04 06:55:49;;;;;;;16.33;12.38;;;20.50;99.90;;;;;;6206581;28;20074;-84
2022/06/04 06:58:51;;;;;;;18.38;11.70;;;20.60;99.90;;;;;;6208374;28;20050;-84
2022/06/04 07:01:53;;;;;;;14.18;9.48;;;20.70;99.90;;;;;;6205509;28;20046;-84
2022/06/04 07:04:56;;;;;;;15.18;11.93;;;20.90;99.90;;;;;;6206854;28;20070;-85
2022/06/04 07:07:58;;;;;;;14.02;12.02;;;21.10;99.90;;;;;;6207568;28;20514;-84
2022/06/04 07:11:00;;;;;;;13.07;11.35;;;21.30;99.90;;;;;;6206769;28;20050;-84
2022/06/04 07:14:02;;;;;;;16.10;11.52;;;21.60;99.90;;;;;;6207661;28;20053;-84
2022/06/04 07:17:05;;;;;;;13.70;10.13;;;21.80;99.40;;;;;;6207168;28;20820;-85
2022/06/04 07:20:10;;;;;;;15.85;10.00;;;22.30;98.70;;;;;;6205772;28;20053;-84
2022/06/04 07:23:13;;;;;;;14.43;11.27;;;22.60;97.90;;;;;;6206134;28;20054;-84
2022/06/04 07:26:15;;;;;;;13.82;10.05;;;22.80;97.30;;;;;;6205960;28;20038;-85
2022/06/04 07:29:17;;;;;;;12.65;10.80;;;22.80;97.00;;;;;;6204903;28;20043;-84
2022/06/04 07:32:19;;;;;;;12.48;10.57;;;22.70;96.90;;;;;;6206264;28;20049;-85
2022/06/04 07:35:22;;;;;;;14.15;11.85;;;22.60;96.50;;;;;;6208822;28;20057;-84
2022/06/04 07:38:23;;;;;;;16.20;10.85;;;22.60;96.80;;;;;;6207017;28;20042;-84
2022/06/04 07:41:28;;;;;;;12.35;11.05;;;22.60;96.60;;;;;;6204646;28;20046;-84
2022/06/04 07:44:30;;;;;;;14.68;12.20;;;22.70;96.50;;;;;;6205973;28;20046;-84
2022/06/04 07:47:34;;;;;;;12.05;10.82;;;22.80;96.30;;;;;;6206841;28;20050;-84
2022/06/04 07:50:39;;;;;;;14.93;10.10;;;23.00;96.30;;;;;;6209447;28;20522;-84
2022/06/04 07:53:41;;;;;;;13.20;11.57;;;23.00;95.90;;;;;;6208116;28;20041;-85
2022/06/04 07:56:43;;;;;;;15.68;11.18;;;22.90;95.70;;;;;;6216516;28;20069;-84
2022/06/04 07:59:45;;;;;;;27.25;12.88;;;22.70;96.10;;;;;;6207546;28;20120;-84
2022/06/04 08:02:48;;;;;;;15.65;10.95;;;22.70;96.40;;;;;;6204704;28;20395;-84
2022/06/04 08:05:52;;;;;;;17.38;11.63;;;22.80;96.50;;;;;;6204590;28;20054;-85
2022/06/04 08:08:55;;;;;;;16.40;12.98;;;22.80;96.50;;;;;;6202063;28;20502;-83
2022/06/04 08:11:57;;;;;;;13.35;10.23;;;22.90;96.80;;;;;;6202791;28;20050;-84
2022/06/04 08:14:59;;;;;;;23.50;12.45;;;22.90;96.40;;;;;;6158096;28;20058;-85
2022/06/04 08:18:01;;;;;;;16.83;11.20;;;23.00;96.30;;;;;;6223353;28;20097;-83
2022/06/04 08:21:07;;;;;;;13.45;11.35;;;23.00;96.20;;;;;;6199506;28;20141;-83
2022/06/04 08:24:10;;;;;;;13.40;11.05;;;23.10;96.00;;;;;;6188733;28;20053;-83
2022/06/04 08:27:12;;;;;;;14.40;12.82;;;23.10;96.10;;;;;;6189550;28;20243;-84
2022/06/04 08:30:14;;;;;;;14.18;12.55;;;23.00;95.90;;;;;;6201734;28;20047;-85
2022/06/04 08:33:16;;;;;;;16.35;11.88;;;23.00;96.10;;;;;;6204195;28;20165;-84
2022/06/04 08:36:19;;;;;;;14.88;11.65;;;23.10;96.10;;;;;;6204274;28;20421;-83
2022/06/04 08:39:21;;;;;;;16.67;13.23;;;23.20;95.80;;;;;;6203168;28;20073;-84
2022/06/04 08:42:40;;;;;;;11.75;10.40;;;23.20;95.30;;;;;;6201372;28;20046;-84
2022/06/04 08:45:44;;;;;;;18.02;11.98;;;23.20;95.30;;;;;;6199581;28;20073;-85
2022/06/04 08:48:47;;;;;;;14.02;12.25;;;23.30;95.10;;;;;;6203172;28;20070;-84
2022/06/04 08:51:50;;;;;;;15.32;12.88;;;23.30;94.90;;;;;;6201393;28;20126;-84
2022/06/04 08:58:36;;;;;;;16.23;13.65;;;23.20;95.10;;;;;;6202454;28;20042;-84
2022/06/04 09:01:42;;;;;;;19.45;14.85;;;23.10;95.20;;;;;;6204560;28;20058;-83
2022/06/04 09:04:56;;;;;;;15.18;13.55;;;23.00;95.10;;;;;;6234056;23;20064;-86
2022/06/04 09:08:03;;;;;;;18.65;14.57;;;22.90;95.20;;;;;;6204229;28;20062;-85
2022/06/04 09:11:10;;;;;;;19.40;15.32;;;23.00;95.10;;;;;;6201887;28;20046;-84
2022/06/04 09:14:25;;;;;;;;;;;23.00;95.00;;;;;;6203249;28;20043;-84
2022/06/04 09:17:36;;;;;;;16.77;14.50;;;23.30;94.60;;;;;;6204673;28;19922;-87
2022/06/04 09:20:41;;;;;;;20.33;13.80;;;23.40;94.60;;;;;;6203707;28;20042;-86
2022/06/04 09:23:47;;;;;;;15.02;13.13;;;23.50;94.30;;;;;;6188843;28;20038;-85
2022/06/04 09:26:54;;;;;;;14.77;13.23;;;23.50;94.10;;;;;;6206749;28;20425;-85
2022/06/04 09:30:05;;;;;;;30.98;14.07;;;23.50;94.30;;;;;;6207413;28;20038;-86
2022/06/04 09:33:31;;;;;;;16.70;14.20;;;23.70;94.30;;;;;;6206964;28;20056;-85
2022/06/04 09:36:35;;;;;;;15.07;13.10;;;23.80;94.30;;;;;;6204279;28;20050;-86
2022/06/04 09:39:41;;;;;;;17.00;15.23;;;24.10;93.90;;;;;;6201739;28;20074;-86
2022/06/04 09:42:43;;;;;;;15.50;13.73;;;24.20;93.60;;;;;;6203726;28;20046;-85
2022/06/04 09:45:52;;;;;;;14.35;12.90;;;24.50;93.10;;;;;;6196061;28;20043;-87
2022/06/04 09:48:55;;;;;;;18.17;12.75;;;24.60;92.90;;;;;;6188585;28;20051;-85
2022/06/04 09:51:57;;;;;;;15.82;12.68;;;24.60;92.80;;;;;;6185363;28;20039;-88
2022/06/04 09:55:15;;;;;;;14.15;12.38;;;24.80;92.40;;;;;;6183288;28;20046;-87
2022/06/04 09:58:20;;;;;;;15.63;13.05;;;24.90;92.30;;;;;;6184186;28;20054;-86
2022/06/04 10:01:24;;;;;;;15.25;12.00;;;25.00;92.10;;;;;;6184852;28;20054;-85
2022/06/04 10:04:38;;;;;;;18.02;14.10;;;25.10;91.60;;;;;;6185996;28;20065;-85
2022/06/04 10:07:40;;;;;;;15.65;12.18;;;25.20;91.40;;;;;;6185717;28;20047;-86
2022/06/04 10:10:45;;;;;;;17.30;12.68;;;25.30;91.10;;;;;;6186486;28;20051;-88
2022/06/04 10:13:49;;;;;;;12.35;10.98;;;25.20;91.10;;;;;;6197163;28;20038;-86
2022/06/04 10:16:50;;;;;;;14.20;11.18;;;25.40;91.10;;;;;;6186571;28;20082;-85
2022/06/04 10:19:53;;;;;;;11.70;10.48;;;25.60;90.70;;;;;;6192004;28;20039;-85
2022/06/04 10:22:56;;;;;;;12.52;11.10;;;25.90;90.30;;;;;;6180487;28;20051;-84
2022/06/04 10:26:22;;;;;;;12.50;10.23;;;26.10;89.50;;;;;;6201124;28;20069;-85
2022/06/04 10:29:50;;;;;;;11.25;8.82;;;26.30;88.60;;;;;;6207562;28;20417;-84
2022/06/04 10:33:08;;;;;;;15.82;10.07;;;26.50;88.00;;;;;;6206835;28;20042;-85
2022/06/04 10:36:18;;;;;;;;;;;26.70;87.30;;;;;;6209661;28;20053;-84
2022/06/04 10:39:33;;;;;;;10.32;9.27;;;26.90;86.70;;;;;;6208800;28;20269;-85
2022/06/04 10:42:49;;;;;;;10.52;9.45;;;27.10;85.50;;;;;;6208241;28;20042;-86
2022/06/04 10:45:58;;;;;;;12.18;9.13;;;27.40;85.10;;;;;;6206085;28;20054;-86
2022/06/04 10:49:13;;;;;;;11.70;9.15;;;27.60;83.00;;;;;;6193984;28;20057;-85
2022/06/04 10:52:24;;;;;;;10.25;9.18;;;27.70;82.70;;;;;;6189880;28;20053;-84
2022/06/04 10:55:37;;;;;;;15.23;9.57;;;27.80;83.10;;;;;;6183360;28;20134;-84
2022/06/04 10:58:46;;;;;;;11.43;9.90;;;28.00;82.60;;;;;;6183151;28;20158;-84
2022/06/04 11:01:55;;;;;;;13.90;9.95;;;27.90;82.70;;;;;;6184839;28;20394;-86
2022/06/04 11:05:01;;;;;;;12.88;9.93;;;27.90;82.90;;;;;;6184504;28;20061;-85
2022/06/04 11:08:07;;;;;;;11.30;9.27;;;27.80;82.50;;;;;;6185031;28;20399;-84
2022/06/04 11:11:14;;;;;;;13.60;10.35;;;27.70;83.50;;;;;;6185872;28;20532;-84
2022/06/04 11:14:26;;;;;;;12.40;10.57;;;27.50;83.60;;;;;;6183699;28;20414;-86
2022/06/04 11:17:31;;;;;;;12.50;9.35;;;27.40;84.10;;;;;;6188573;28;20166;-85
2022/06/04 11:20:40;;;;;;;11.63;10.43;;;27.60;83.70;;;;;;6210023;28;20061;-86
2022/06/04 11:23:48;;;;;;;11.90;9.45;;;27.80;83.10;;;;;;6206265;28;20132;-85
2022/06/04 11:26:52;;;;;;;;;;;27.80;82.60;;;;;;6206825;28;20056;-84
2022/06/04 11:29:56;;;;;;;9.43;8.10;;;28.20;82.80;;;;;;6207512;28;19921;-84
2022/06/04 11:33:05;;;;;;;9.88;8.75;;;28.40;80.50;;;;;;6208369;28;20057;-87
2022/06/04 11:36:18;;;;;;;10.02;8.52;;;28.70;78.50;;;;;;6207703;28;20398;-86
2022/06/04 11:39:42;;;;;;;10.27;8.75;;;28.80;78.70;;;;;;6204873;28;20046;-85
2022/06/04 11:42:55;;;;;;;17.42;8.10;;;28.70;78.80;;;;;;6206687;28;20053;-86
2022/06/04 11:46:11;;;;;;;12.55;8.57;;;28.80;78.20;;;;;;6207403;28;20395;-83
2022/06/04 11:49:26;;;;;;;12.15;7.82;;;28.90;79.20;;;;;;6197060;28;20137;-84
2022/06/04 11:52:30;;;;;;;14.13;7.43;;;29.30;77.10;;;;;;6181699;28;20043;-84
2022/06/04 11:55:38;;;;;;;7.82;7.05;;;29.50;75.60;;;;;;6183055;28;20137;-84
2022/06/04 11:59:07;;;;;;;7.40;6.63;;;29.70;74.10;;;;;;6182207;28;20146;-85
2022/06/04 12:02:18;;;;;;;7.60;6.68;;;29.90;72.70;;;;;;6179974;28;20052;-86
2022/06/04 12:05:39;;;;;;;8.38;7.47;;;30.20;71.80;;;;;;6177067;28;20483;-86
2022/06/04 12:08:45;;;;;;;9.20;7.50;;;30.40;70.40;;;;;;6182645;28;20060;-86
2022/06/04 12:11:53;;;;;;;9.85;7.72;;;30.40;70.10;;;;;;6182050;28;20042;-86
2022/06/04 12:15:00;;;;;;;12.43;9.60;;;30.40;71.40;;;;;;6211419;28;20048;-85
2022/06/04 12:18:19;;;;;;;10.75;8.65;;;30.30;71.30;;;;;;6203697;28;20058;-84
2022/06/04 12:25:00;;;;;;;11.30;9.02;;;30.10;71.70;;;;;;6204881;28;20050;-85
2022/06/04 12:28:26;;;;;;;10.88;8.98;;;30.00;71.50;;;;;;6207806;28;20146;-83
2022/06/04 12:31:34;;;;;;;11.10;8.32;;;30.30;71.60;;;;;;6192518;28;20043;-84
2022/06/04 12:34:40;;;;;;;11.43;8.45;;;30.30;70.20;;;;;;6183635;28;20055;-86
2022/06/04 12:37:44;;;;;;;9.87;8.43;;;30.30;70.30;;;;;;6180754;28;20051;-82
2022/06/04 12:40:46;;;;;;;10.05;9.05;;;30.30;70.20;;;;;;6181324;28;20571;-85
2022/06/04 12:43:56;;;;;;;12.05;8.23;;;30.30;69.40;;;;;;6178904;28;20062;-85
2022/06/04 12:47:12;;;;;;;9.65;7.90;;;30.20;70.10;;;;;;6178211;28;20058;-84
2022/06/04 12:50:23;;;;;;;12.05;7.85;;;30.10;69.50;;;;;;6193638;28;20513;-85
2022/06/04 12:53:28;;;;;;;8.77;7.20;;;30.30;69.10;;;;;;6198652;28;20042;-84
2022/06/04 12:56:34;;;;;;;12.55;8.35;;;30.30;69.40;;;;;;6201615;28;20051;-84
2022/06/04 12:59:42;;;;;;;9.93;7.82;;;30.40;68.70;;;;;;6198272;28;20105;-87
2022/06/04 13:02:55;;;;;;;9.27;6.97;;;30.50;68.70;;;;;;6200470;28;20125;-84
2022/06/04 13:06:02;;;;;;;9.98;8.98;;;30.30;69.20;;;;;;6199623;28;20054;-85
2022/06/04 13:09:14;;;;;;;10.40;7.47;;;30.20;68.40;;;;;;6200347;28;20053;-85
2022/06/04 13:12:32;;;;;;;8.57;6.85;;;30.20;68.90;;;;;;6200016;28;20046;-85
2022/06/04 13:15:44;;;;;;;8.73;6.70;;;30.30;69.20;;;;;;6174891;28;20051;-84
2022/06/04 13:18:56;;;;;;;12.55;7.43;;;30.40;68.50;;;;;;6185409;28;20046;-84
2022/06/04 13:22:00;;;;;;;8.18;7.32;;;30.20;67.90;;;;;;6202283;28;20544;-85
2022/06/04 13:25:05;;;;;;;11.13;5.88;;;29.70;68.10;;;;;;6203791;28;20046;-86
2022/06/04 13:28:25;;;;;;;9.80;5.75;;;29.70;69.30;;;;;;6202880;28;20565;-85
2022/06/04 13:31:30;;;;;;;4.75;4.35;;;30.00;68.70;;;;;;6204440;28;20039;-85
2022/06/04 13:34:34;;;;;;;6.68;4.13;;;30.50;66.30;;;;;;6207476;28;20148;-86
2022/06/04 13:37:37;;;;;;;7.30;6.45;;;30.70;65.00;;;;;;6206034;28;20058;-85
2022/06/04 13:40:39;;;;;;;6.05;5.20;;;31.00;64.70;;;;;;6204585;28;20056;-85
2022/06/04 13:43:44;;;;;;;7.85;6.03;;;30.90;64.30;;;;;;6204380;28;20058;-85
2022/06/04 13:46:45;;;;;;;15.60;4.93;;;31.00;64.60;;;;;;6204428;28;20057;-85
2022/06/04 13:49:50;;;;;;;5.70;4.35;;;31.40;64.00;;;;;;6193012;28;20125;-84
2022/06/04 13:52:56;;;;;;;4.82;4.15;;;31.90;62.30;;;;;;6207743;28;20054;-84
2022/06/04 13:56:02;;;;;;;5.90;3.88;;;32.10;61.20;;;;;;6204126;28;20053;-85
2022/06/04 13:59:04;;;;;;;4.15;3.60;;;31.80;60.80;;;;;;6207152;28;20050;-86
2022/06/04 14:02:15;;;;;;;4.15;3.72;;;32.00;60.50;;;;;;6207971;28;20038;-84
2022/06/04 14:08:50;;;;;;;5.35;3.58;;;31.60;61.10;;;;;;6191932;28;20077;-85
2022/06/04 14:12:02;;;;;;;5.35;3.85;;;31.40;61.30;;;;;;6209886;28;20062;-84
2022/06/04 14:15:16;;;;;;;6.57;3.88;;;31.40;61.60;;;;;;6207546;28;20046;-84
2022/06/04 14:18:35;;;;;;;5.53;3.40;;;31.60;60.80;;;;;;6182557;28;20129;-84
2022/06/04 14:21:48;;;;;;;3.63;2.63;;;31.50;61.20;;;;;;6187693;28;20050;-85
2022/06/04 14:28:29;;;;;;;4.88;2.80;;;32.30;58.60;;;;;;6176566;28;20399;-84
2022/06/04 14:31:43;;;;;;;6.63;3.58;;;32.60;59.20;;;;;;6176665;28;20050;-85
2022/06/04 14:34:45;;;;;;;3.90;3.33;;;33.00;57.00;;;;;;6177372;28;20056;-86
2022/06/04 14:37:49;;;;;;;8.27;3.60;;;33.20;55.60;;;;;;6177795;28;20097;-85
2022/06/04 14:41:00;;;;;;;7.05;3.20;;;32.90;54.90;;;;;;6178826;28;20050;-85
2022/06/04 14:44:36;;;;;;;5.55;3.17;;;32.30;56.50;;;;;;6178281;28;20534;-85
2022/06/04 14:48:05;;;;;;;6.13;3.28;;;32.10;56.50;;;;;;6167745;28;20046;-86
2022/06/04 14:51:24;;;;;;;6.03;2.63;;;32.20;56.80;;;;;;6177664;28;20043;-84
2022/06/04 14:54:27;;;;;;;4.40;2.83;;;32.10;56.40;;;;;;6178471;28;20054;-85
2022/06/04 14:57:57;;;;;;;6.22;3.30;;;31.70;56.20;;;;;;6178792;28;20081;-84
2022/06/04 15:01:18;;;;;;;5.07;2.85;;;31.10;57.90;;;;;;6178382;28;20058;-85
2022/06/04 15:04:46;;;;;;;3.90;3.13;;;31.00;58.70;;;;;;6177105;28;20055;-84
2022/06/04 15:08:16;;;;;;;5.90;3.25;;;31.20;58.50;;;;;;6184876;28;20047;-86
2022/06/04 15:11:39;;;;;;;3.50;2.75;;;31.20;57.50;;;;;;6177672;28;20050;-85
2022/06/04 15:18:05;;;;;;;2.85;2.55;;;31.40;57.60;;;;;;6224176;28;20041;-81
2022/06/04 15:21:11;;;;;;;7.78;2.80;;;31.80;57.10;;;;;;6237806;28;20048;-82
2022/06/04 15:24:26;;;;;;;4.53;2.90;;;31.90;56.80;;;;;;6254113;28;20045;-82
2022/06/04 15:27:40;;;;;;;4.07;2.53;;;31.80;56.60;;;;;;6253303;28;20518;-82
2022/06/04 15:34:14;;;;;;;3.72;2.92;;;31.80;56.30;;;;;;6255960;28;20042;-81
2022/06/04 15:37:26;;;;;;;3.67;2.63;;;31.50;56.40;;;;;;6241799;28;20053;-82
2022/06/04 15:40:29;;;;;;;4.95;3.45;;;31.20;56.60;;;;;;6233508;28;20046;-82
2022/06/04 15:43:34;;;;;;;7.18;3.08;;;30.90;57.70;;;;;;6232851;28;20075;-82
2022/06/04 15:46:50;;;;;;;7.53;3.13;;;30.60;58.50;;;;;;6228593;28;20497;-81
2022/06/04 15:56:45;;;;;;;4.93;2.75;;;29.90;60.60;;;;;;6190806;28;20042;-82
2022/06/04 15:59:57;;;;;;;9.88;3.90;;;29.90;61.50;;;;;;6216216;28;20049;-81
2022/06/04 16:02:59;;;;;;;5.90;3.40;;;30.30;61.60;;;;;;6252007;28;20538;-81
2022/06/04 16:06:21;;;;;;;3.58;3.03;;;30.40;61.30;;;;;;6252443;28;20045;-81
2022/06/04 16:09:27;;;;;;;3.95;3.08;;;30.10;61.70;;;;;;6252313;28;20484;-83
2022/06/04 16:12:35;;;;;;;4.45;3.17;;;30.00;61.70;;;;;;6253458;28;20053;-82
2022/06/04 16:15:53;;;;;;;3.08;2.42;;;29.90;62.00;;;;;;6228763;28;20061;-82
2022/06/04 16:19:12;;;;;;;;;;;29.70;62.00;;;;;;6216980;28;20125;-83
2022/06/04 16:22:24;;;;;;;4.13;3.00;;;29.20;64.10;;;;;;6204690;28;19929;-84
2022/06/04 16:25:31;;;;;;;5.65;3.05;;;29.10;64.30;;;;;;6206580;28;20050;-83
2022/06/04 16:28:51;;;;;;;3.38;2.55;;;29.10;64.20;;;;;;6231800;28;20069;-83
2022/06/04 16:32:07;;;;;;;4.57;3.05;;;29.10;64.60;;;;;;6207560;28;20043;-82
2022/06/04 16:35:10;;;;;;;6.18;2.88;;;29.00;64.00;;;;;;6202906;28;20126;-82
2022/06/04 16:38:24;;;;;;;6.40;1.98;;;28.80;63.90;;;;;;6202719;28;20046;-82
2022/06/04 16:44:57;;;;;;;4.85;2.17;;;28.60;61.80;;;;;;6204706;28;20050;-84
2022/06/04 16:48:00;;;;;;;;;;;28.60;63.90;;;;;;6209579;28;20045;-82